Date,TemperatureHighF,TemperatureAvgF,TemperatureLowF,DewpointHighF,DewpointAvgF,DewpointLowF,HumidityHigh,HumidityAvg,HumidityLow,PressureMaxIn,PressureMinIn,WindSpeedMaxMPH,WindSpeedAvgMPH,GustSpeedMaxMPH,PrecipitationSumIn
2013-9-1,65.1,65.1,65.1,50.0,50.0,50.0,58,58,58,29.32,29.23,6,0,7,0.00
2013-9-2,65.1,65.1,65.1,50.0,50.0,50.0,58,58,58,29.38,29.29,6,1,7,0.00
2013-9-3,65.1,65.1,65.1,50.0,50.0,50.0,58,58,58,29.44,29.35,5,0,5,0.12
2013-9-4,65.1,65.1,65.1,50.0,50.0,50.0,58,58,58,29.47,29.41,6,0,6,0.00
2013-9-5,65.1,65.1,65.1,50.0,50.0,50.0,58,58,58,29.47,29.35,6,0,8,0.94
2013-9-6,65.1,65.1,65.1,50.0,50.0,50.0,58,58,58,29.53,29.35,8,0,8,0.35
2013-9-7,65.1,65.1,65.1,50.0,50.0,50.0,58,58,58,29.53,29.41,5,0,6,0.00
2013-9-8,65.1,65.1,65.1,50.0,50.0,50.0,58,58,58,29.53,29.44,6,0,6,0.00
2013-9-9,65.1,65.1,65.1,50.0,50.0,50.0,58,58,58,29.47,29.41,7,0,7,0.00
2013-9-10,65.1,65.1,65.1,50.0,50.0,50.0,58,58,58,29.41,29.32,6,0,6,0.00
2013-9-11,65.1,53.4,0.0,50.0,41.1,0.0,58,48,58,29.38,29.29,6,0,6,0.00
2013-9-12,67.1,10.9,0.0,45.2,7.5,0.0,57,8,38,29.44,29.35,5,0,6,0.00
2013-9-13,64.8,61.7,57.6,52.9,48.1,44.4,72,61,50,29.41,29.32,3,0,3,0.00
2013-9-14,67.3,62.9,57.7,50.8,47.3,44.1,66,57,45,29.32,29.21,4,0,5,0.00
2013-9-15,64.9,61.1,56.8,54.9,50.5,46.0,75,68,56,29.29,29.15,5,0,5,0.00
2013-9-16,66.7,61.1,57.9,51.4,45.9,35.7,72,58,40,29.38,29.29,6,0,8,0.00
2013-9-17,61.5,57.9,54.5,39.4,34.4,31.2,55,41,33,29.38,29.32,6,0,7,0.00
2013-9-18,68.4,60.0,53.2,42.8,36.1,27.9,61,44,23,29.53,29.38,6,1,6,0.00
2013-9-19,54.0,53.8,53.6,30.8,30.7,30.5,41,41,41,29.23,29.23,0,0,0,0.00
2013-9-20,72.1,59.7,50.5,46.0,34.6,29.0,66,41,22,29.23,29.09,8,0,9,0.04
2013-9-21,68.5,60.6,54.0,48.2,39.3,27.8,71,49,22,29.21,29.12,6,0,7,0.00
2013-9-22,59.7,56.1,53.4,47.1,40.3,33.9,67,56,40,29.23,29.06,8,1,8,0.16
2013-9-23,58.8,55.0,49.6,44.5,41.1,36.5,70,60,44,29.44,29.23,8,0,8,0.04
2013-9-24,61.2,52.2,47.8,45.7,37.0,26.8,74,58,28,29.44,29.32,6,0,6,0.00
2013-9-25,56.7,50.2,44.2,44.8,38.0,29.4,72,64,38,29.50,29.32,5,0,5,0.04
2013-9-26,60.4,49.5,39.9,44.1,33.3,27.5,73,56,30,29.62,29.47,6,0,6,0.00
2013-9-27,55.6,52.5,48.7,42.9,36.6,31.8,63,55,47,29.62,29.35,8,0,9,0.00
2013-9-28,59.7,55.2,50.7,50.5,44.8,38.5,73,68,59,29.35,28.88,8,1,14,0.43
2013-9-29,53.4,51.3,50.0,42.8,38.4,32.8,68,61,46,29.12,28.70,10,1,10,0.04
2013-9-30,54.7,49.8,47.1,45.0,37.9,30.9,72,63,51,29.47,29.00,8,1,12,0.16